createdAt,value
2023-04-26T00:02:56.534Z,6.60
2023-04-26T00:06:01.825Z,6.50
2023-04-26T00:09:05.382Z,6.60
2023-04-26T00:12:07.613Z,6.50
2023-04-26T00:15:10.011Z,6.50
2023-04-26T00:18:12.772Z,6.50
2023-04-26T00:21:14.897Z,6.40
2023-04-26T00:24:17.508Z,6.40
2023-04-26T00:27:19.465Z,6.50
2023-04-26T00:30:23.192Z,6.40
2023-04-26T00:33:26.149Z,6.00
2023-04-26T00:36:28.006Z,6.00
2023-04-26T00:39:29.940Z,5.90
2023-04-26T00:42:33.676Z,5.90
2023-04-26T00:45:36.022Z,5.70
2023-04-26T00:48:39.662Z,5.60
2023-04-26T00:51:42.258Z,5.70
2023-04-26T00:54:44.920Z,5.60
2023-04-26T00:57:47.128Z,5.90
2023-04-26T01:00:54.907Z,5.80
2023-04-26T01:03:57.424Z,5.70
2023-04-26T01:07:03.180Z,5.70
2023-04-26T01:10:06.201Z,5.80
2023-04-26T01:13:09.021Z,5.90
2023-04-26T01:16:11.326Z,6.00
2023-04-26T01:19:13.560Z,6.00
2023-04-26T01:22:16.328Z,5.90
2023-04-26T01:25:19.375Z,6.00
2023-04-26T01:28:21.607Z,6.00
2023-04-26T01:31:24.332Z,5.90
2023-04-26T01:34:26.121Z,5.90
2023-04-26T01:37:28.888Z,5.70
2023-04-26T01:40:30.701Z,5.60
2023-04-26T01:43:36.475Z,5.70
2023-04-26T01:46:38.318Z,5.70
2023-04-26T01:49:41.675Z,5.70
2023-04-26T01:52:43.390Z,5.70
2023-04-26T01:55:51.616Z,5.70
2023-04-26T01:58:55.598Z,5.70
2023-04-26T02:01:58.970Z,5.70
2023-04-26T02:05:01.449Z,5.60
2023-04-26T02:08:08.065Z,5.60
2023-04-26T02:11:10.140Z,5.50
2023-04-26T02:14:12.041Z,5.40
2023-04-26T02:17:14.726Z,5.40
2023-04-26T02:20:18.162Z,5.50
2023-04-26T02:23:19.907Z,5.50
2023-04-26T02:26:21.897Z,5.40
2023-04-26T02:29:36.326Z,5.50
2023-04-26T02:32:46.158Z,5.40
2023-04-26T02:35:48.078Z,5.40
2023-04-26T02:38:50.842Z,5.50
2023-04-26T02:41:52.762Z,5.40
2023-04-26T02:44:54.579Z,5.40
2023-04-26T02:47:56.552Z,5.40
2023-04-26T02:51:03.444Z,5.40
2023-04-26T02:54:07.053Z,5.30
2023-04-26T02:57:14.051Z,5.30
2023-04-26T03:00:15.924Z,5.00
2023-04-26T03:03:18.740Z,5.00
2023-04-26T03:06:20.835Z,4.80
2023-04-26T03:09:23.228Z,4.70
2023-04-26T03:12:25.255Z,4.80
2023-04-26T03:15:27.287Z,4.70
2023-04-26T03:18:29.021Z,4.60
2023-04-26T03:21:32.712Z,4.50
2023-04-26T03:24:34.510Z,4.50
2023-04-26T03:27:36.347Z,4.60
2023-04-26T03:30:38.591Z,4.60
2023-04-26T03:33:40.606Z,4.70
2023-04-26T03:36:42.388Z,4.90
2023-04-26T03:39:45.842Z,4.80
2023-04-26T03:42:47.594Z,4.70
2023-04-26T03:45:50.388Z,4.50
2023-04-26T03:48:52.953Z,4.60
2023-04-26T03:51:55.138Z,4.70
2023-04-26T03:54:57.042Z,4.80
2023-04-26T03:57:58.902Z,4.70
2023-04-26T04:01:00.867Z,4.70
2023-04-26T04:04:03.131Z,4.80
2023-04-26T04:07:06.082Z,4.80
2023-04-26T04:10:10.832Z,4.60
2023-04-26T04:13:12.876Z,4.60
2023-04-26T04:16:16.465Z,4.60
2023-04-26T04:19:19.080Z,4.50
2023-04-26T04:22:22.623Z,4.70
2023-04-26T04:25:25.240Z,4.70
2023-04-26T04:28:27.253Z,4.70
2023-04-26T04:31:30.151Z,4.70
2023-04-26T04:34:36.141Z,4.70
2023-04-26T04:37:38.058Z,4.50
2023-04-26T04:40:40.087Z,4.50
2023-04-26T04:43:41.874Z,4.60
2023-04-26T04:46:44.530Z,4.70
2023-04-26T04:49:47.265Z,4.50
2023-04-26T04:52:49.907Z,4.20
2023-04-26T04:55:51.975Z,4.30
2023-04-26T04:58:54.661Z,4.30
2023-04-26T05:01:56.737Z,4.20
2023-04-26T05:05:03.614Z,4.40
2023-04-26T05:08:07.884Z,4.40
2023-04-26T05:11:09.800Z,4.60
2023-04-26T05:14:11.847Z,4.70
2023-04-26T05:17:13.851Z,4.70
2023-04-26T05:20:15.996Z,4.70
2023-04-26T05:23:19.332Z,4.70
2023-04-26T05:26:21.121Z,4.70
2023-04-26T05:29:23.853Z,4.70
2023-04-26T05:32:26.366Z,4.70
2023-04-26T05:35:28.140Z,4.70
2023-04-26T05:38:30.338Z,4.80
2023-04-26T05:41:32.141Z,4.80
2023-04-26T05:44:33.883Z,4.80
2023-04-26T05:47:35.897Z,4.70
2023-04-26T05:50:39.597Z,4.60
2023-04-26T05:53:46.860Z,4.70
2023-04-26T05:56:48.810Z,4.70
2023-04-26T05:59:50.921Z,4.90
2023-04-26T06:02:53.432Z,5.00
2023-04-26T06:05:59.076Z,5.00
2023-04-26T06:09:01.475Z,5.10
2023-04-26T06:12:04.220Z,5.30
2023-04-26T06:15:06.600Z,5.30
2023-04-26T06:18:08.845Z,5.40
2023-04-26T06:21:10.975Z,5.50
2023-04-26T06:24:12.885Z,5.50
2023-04-26T06:27:14.696Z,5.50
2023-04-26T06:30:22.804Z,5.80
2023-04-26T06:33:24.690Z,6.00
2023-04-26T06:36:28.997Z,6.10
2023-04-26T06:39:30.885Z,6.20
2023-04-26T06:42:33.578Z,6.30
2023-04-26T06:45:36.182Z,6.30
2023-04-26T06:48:38.928Z,6.30
2023-04-26T06:51:44.243Z,6.40
2023-04-26T06:54:56.594Z,6.50
2023-04-26T06:57:59.493Z,6.70
2023-04-26T07:01:02.149Z,6.70
2023-04-26T07:04:08.325Z,6.60
2023-04-26T07:07:16.782Z,6.70
2023-04-26T07:10:18.537Z,6.80
2023-04-26T07:13:21.833Z,6.90
2023-04-26T07:16:23.924Z,6.90
2023-04-26T07:19:31.231Z,7.00
2023-04-26T07:22:33.128Z,7.00
2023-04-26T07:25:34.974Z,7.10
2023-04-26T07:28:36.968Z,7.10
2023-04-26T07:31:38.758Z,7.30
2023-04-26T07:34:41.234Z,7.30
2023-04-26T07:37:49.038Z,7.30
2023-04-26T07:40:51.595Z,7.30
2023-04-26T07:43:55.205Z,7.40
2023-04-26T07:46:57.388Z,7.40
2023-04-26T07:49:59.918Z,7.50
2023-04-26T07:53:01.790Z,7.60
2023-04-26T07:56:10.232Z,7.50
2023-04-26T07:59:12.002Z,7.70
2023-04-26T08:02:17.346Z,7.70
2023-04-26T08:05:19.457Z,7.60
2023-04-26T08:08:26.567Z,7.60
2023-04-26T08:11:28.476Z,7.70
2023-04-26T08:14:31.831Z,7.80
2023-04-26T08:17:33.612Z,8.00
2023-04-26T08:20:35.754Z,8.20
2023-04-26T08:23:37.645Z,8.30
2023-04-26T08:26:39.476Z,8.20
2023-04-26T08:29:41.266Z,8.30
2023-04-26T08:32:47.886Z,8.30
2023-04-26T08:35:49.884Z,8.50
2023-04-26T08:38:51.886Z,8.60
2023-04-26T08:41:55.447Z,8.70
2023-04-26T08:45:02.523Z,8.90
2023-04-26T08:48:11.827Z,9.00
2023-04-26T08:51:14.723Z,9.10
2023-04-26T08:54:18.285Z,9.10
2023-04-26T08:57:21.575Z,9.00
2023-04-26T09:00:23.711Z,8.80
2023-04-26T09:03:27.014Z,9.00
2023-04-26T09:06:29.036Z,9.10
2023-04-26T09:09:42.741Z,9.20
2023-04-26T09:12:44.658Z,9.20
2023-04-26T09:15:49.641Z,9.20
2023-04-26T09:18:52.604Z,9.20
2023-04-26T09:21:55.002Z,9.30
2023-04-26T09:24:57.064Z,9.30
2023-04-26T09:28:01.135Z,9.30
2023-04-26T09:31:03.209Z,9.50
2023-04-26T09:34:06.070Z,9.60
2023-04-26T09:37:14.546Z,9.50
2023-04-26T09:40:20.731Z,9.50
2023-04-26T09:43:23.033Z,9.60
2023-04-26T09:46:25.834Z,9.60
2023-04-26T09:49:29.043Z,9.50
2023-04-26T09:52:31.055Z,9.40
2023-04-26T09:55:35.479Z,9.50
2023-04-26T09:58:41.198Z,9.40
2023-04-26T10:01:43.994Z,9.40
2023-04-26T10:04:53.646Z,9.50
2023-04-26T10:07:55.729Z,9.50
2023-04-26T10:11:06.576Z,9.50
2023-04-26T10:14:08.598Z,9.50
2023-04-26T10:17:12.717Z,9.60
2023-04-26T10:20:18.068Z,9.70
2023-04-26T10:23:26.455Z,9.80
2023-04-26T10:26:48.461Z,9.90
2023-04-26T10:29:56.754Z,10.00
2023-04-26T10:32:58.581Z,10.00
2023-04-26T10:36:03.877Z,10.00
2023-04-26T10:39:18.537Z,10.00
2023-04-26T10:42:28.032Z,10.00
2023-04-26T10:45:30.382Z,10.10
2023-04-26T10:48:32.725Z,10.40
2023-04-26T10:51:35.495Z,10.60
2023-04-26T10:54:51.027Z,10.70
2023-04-26T10:57:54.664Z,10.90
2023-04-26T11:01:17.195Z,11.10
2023-04-26T11:04:20.160Z,11.10
2023-04-26T11:07:39.577Z,11.10
2023-04-26T11:10:43.190Z,11.10
2023-04-26T11:13:47.068Z,11.20
2023-04-26T11:16:49.889Z,11.20
2023-04-26T11:19:51.888Z,11.30
2023-04-26T11:22:54.306Z,11.20
2023-04-26T11:26:04.969Z,11.20
2023-04-26T11:29:09.611Z,11.40
2023-04-26T11:32:15.394Z,11.30
2023-04-26T11:35:17.193Z,11.40
2023-04-26T11:38:28.016Z,11.30
2023-04-26T11:41:30.629Z,11.10
2023-04-26T11:44:33.534Z,11.00
2023-04-26T11:47:36.557Z,11.20
2023-04-26T11:50:39.917Z,11.20
2023-04-26T11:53:43.090Z,11.30
2023-04-26T11:56:47.318Z,11.30
2023-04-26T11:59:49.336Z,11.30
2023-04-26T12:03:00.121Z,11.30
2023-04-26T12:06:14.655Z,11.30
2023-04-26T12:09:18.028Z,11.20
2023-04-26T12:12:19.724Z,11.20
2023-04-26T12:15:25.442Z,11.20
2023-04-26T12:18:31.781Z,11.30
2023-04-26T12:21:42.586Z,11.50
2023-04-26T12:24:47.887Z,11.60
2023-04-26T12:27:49.717Z,11.50
2023-04-26T12:30:51.952Z,11.50
2023-04-26T12:33:55.328Z,11.60
2023-04-26T12:36:57.022Z,11.50
2023-04-26T12:39:59.800Z,11.60
2023-04-26T12:43:01.561Z,11.50
2023-04-26T12:46:03.547Z,11.40
2023-04-26T12:49:05.461Z,11.30
2023-04-26T12:52:12.516Z,11.30
2023-04-26T12:55:16.112Z,11.20
2023-04-26T12:58:17.969Z,11.10
2023-04-26T13:01:19.852Z,11.20
2023-04-26T13:04:23.261Z,11.40
2023-04-26T13:07:25.098Z,11.60
2023-04-26T13:10:27.161Z,11.70
2023-04-26T13:13:42.433Z,11.70
2023-04-26T13:16:45.260Z,11.70
2023-04-26T13:19:47.343Z,11.90
2023-04-26T13:22:52.873Z,12.00
2023-04-26T13:25:54.871Z,12.10
2023-04-26T13:29:01.496Z,12.10
2023-04-26T13:32:03.728Z,12.10
2023-04-26T13:35:10.832Z,12.10
2023-04-26T13:38:13.620Z,12.00
2023-04-26T13:41:16.225Z,12.10
2023-04-26T13:44:19.873Z,12.00
2023-04-26T13:47:21.864Z,12.00
2023-04-26T13:50:24.052Z,12.10
2023-04-26T13:53:28.461Z,12.30
2023-04-26T13:56:30.534Z,12.20
2023-04-26T13:59:32.848Z,12.00
2023-04-26T14:02:38.695Z,12.10
2023-04-26T14:05:41.134Z,12.20
2023-04-26T14:08:42.932Z,12.40
2023-04-26T14:11:47.364Z,12.40
2023-04-26T14:14:53.662Z,12.50
2023-04-26T14:17:56.317Z,12.60
2023-04-26T14:20:58.221Z,12.50
2023-04-26T14:24:00.288Z,12.40
2023-04-26T14:27:03.162Z,12.50
2023-04-26T14:30:06.506Z,12.60
2023-04-26T14:33:08.403Z,12.60
2023-04-26T14:36:10.330Z,12.40
2023-04-26T14:39:12.326Z,12.30
2023-04-26T14:42:14.142Z,12.10
2023-04-26T14:45:16.330Z,12.20
2023-04-26T14:48:25.350Z,12.30
2023-04-26T14:51:27.370Z,12.30
2023-04-26T14:54:29.983Z,12.30
2023-04-26T14:57:32.721Z,12.20
2023-04-26T15:00:35.372Z,12.10
2023-04-26T15:03:37.989Z,12.20
2023-04-26T15:06:41.451Z,12.20
2023-04-26T15:09:43.407Z,12.20
2023-04-26T15:12:45.979Z,12.10
2023-04-26T15:15:47.864Z,12.10
2023-04-26T15:18:49.859Z,12.10
2023-04-26T15:21:51.845Z,12.10
2023-04-26T15:24:53.641Z,12.10
2023-04-26T15:27:56.380Z,12.10
2023-04-26T15:31:06.210Z,12.00
2023-04-26T15:34:08.920Z,12.00
2023-04-26T15:37:11.095Z,12.10
2023-04-26T15:40:13.306Z,12.00
2023-04-26T15:43:16.238Z,12.10
2023-04-26T15:46:18.058Z,12.10
2023-04-26T15:49:19.959Z,12.10
2023-04-26T15:52:21.822Z,12.10
2023-04-26T15:55:24.670Z,12.20
2023-04-26T15:58:26.831Z,12.10
2023-04-26T16:01:29.298Z,12.10
2023-04-26T16:04:34.458Z,12.20
2023-04-26T16:07:38.747Z,12.20
2023-04-26T16:10:40.794Z,12.20
2023-04-26T16:13:42.755Z,12.20
2023-04-26T16:16:46.132Z,12.30
2023-04-26T16:19:49.338Z,12.30
2023-04-26T16:22:52.064Z,12.30
2023-04-26T16:25:55.607Z,12.30
2023-04-26T16:28:57.425Z,12.30
2023-04-26T16:31:59.754Z,12.20
2023-04-26T16:35:01.624Z,12.20
2023-04-26T16:38:03.709Z,12.20
2023-04-26T16:41:06.072Z,12.20
2023-04-26T16:44:12.871Z,12.30
2023-04-26T16:47:14.592Z,12.30
2023-04-26T16:50:16.340Z,12.30
2023-04-26T16:53:18.765Z,12.20
2023-04-26T16:56:22.597Z,12.20
2023-04-26T16:59:24.454Z,12.20
2023-04-26T17:02:26.460Z,12.10
2023-04-26T17:05:29.918Z,12.10
2023-04-26T17:08:32.336Z,12.10
2023-04-26T17:11:34.884Z,12.00
2023-04-26T17:14:36.945Z,12.00
2023-04-26T17:17:38.917Z,12.10
2023-04-26T17:20:42.041Z,12.10
2023-04-26T17:23:43.859Z,12.00
2023-04-26T17:26:46.728Z,12.00
2023-04-26T17:29:48.612Z,12.00
2023-04-26T17:32:51.274Z,11.90
2023-04-26T17:35:53.264Z,11.80
2023-04-26T17:38:55.340Z,11.80
2023-04-26T17:41:57.099Z,11.70
2023-04-26T17:45:00.783Z,11.80
2023-04-26T17:48:02.949Z,11.70
2023-04-26T17:51:05.816Z,11.70
2023-04-26T17:54:08.279Z,11.60
2023-04-26T17:57:14.713Z,11.60
2023-04-26T18:00:17.159Z,11.60
2023-04-26T18:03:21.799Z,11.60
2023-04-26T18:06:24.329Z,11.50
2023-04-26T18:09:26.445Z,11.50
2023-04-26T18:12:30.693Z,11.40
2023-04-26T18:15:32.583Z,11.40
2023-04-26T18:18:34.420Z,11.40
2023-04-26T18:21:42.626Z,11.40
2023-04-26T18:24:44.612Z,11.30
2023-04-26T18:27:46.937Z,11.20
2023-04-26T18:30:48.808Z,11.30
2023-04-26T18:33:55.424Z,11.20
2023-04-26T18:36:57.631Z,11.10
2023-04-26T18:40:00.400Z,11.10
2023-04-26T18:43:02.239Z,11.10
2023-04-26T18:46:05.673Z,11.10
2023-04-26T18:49:07.473Z,11.10
2023-04-26T18:52:11.444Z,11.00
2023-04-26T18:55:13.317Z,10.90
2023-04-26T18:58:15.969Z,11.00
2023-04-26T19:01:17.996Z,11.00
2023-04-26T19:04:28.058Z,10.90
2023-04-26T19:07:31.586Z,10.90
2023-04-26T19:10:34.153Z,10.80
2023-04-26T19:13:36.002Z,10.70
2023-04-26T19:16:39.232Z,10.70
2023-04-26T19:19:41.026Z,10.70
2023-04-26T19:22:44.595Z,10.70
2023-04-26T19:25:46.714Z,10.60
2023-04-26T19:28:48.762Z,10.50
2023-04-26T19:31:50.834Z,10.50
2023-04-26T19:34:52.823Z,10.40
2023-04-26T19:37:54.638Z,10.30
2023-04-26T19:40:57.775Z,10.30
2023-04-26T19:43:59.518Z,10.30
2023-04-26T19:47:02.242Z,10.10
2023-04-26T19:50:04.492Z,10.20
2023-04-26T19:53:06.509Z,10.10
2023-04-26T19:56:10.902Z,10.10
2023-04-26T19:59:13.624Z,10.10
2023-04-26T20:02:16.885Z,10.10
2023-04-26T20:05:18.831Z,10.00
2023-04-26T20:08:20.709Z,9.90
2023-04-26T20:11:22.652Z,9.90
2023-04-26T20:14:24.811Z,9.90
2023-04-26T20:17:29.855Z,9.80
2023-04-26T20:20:31.743Z,9.80
2023-04-26T20:23:34.586Z,9.70
2023-04-26T20:26:36.611Z,9.60
2023-04-26T20:29:38.711Z,9.50
2023-04-26T20:32:40.876Z,9.60
2023-04-26T20:35:43.462Z,9.50
2023-04-26T20:38:45.421Z,9.40
2023-04-26T20:41:47.465Z,9.40
2023-04-26T20:44:49.238Z,9.50
2023-04-26T20:47:52.258Z,9.50
2023-04-26T20:50:55.183Z,9.60
2023-04-26T20:53:57.878Z,9.40
2023-04-26T20:56:59.869Z,9.40
2023-04-26T21:00:01.745Z,9.50
2023-04-26T21:03:05.716Z,9.40
2023-04-26T21:06:07.567Z,9.40
2023-04-26T21:09:09.748Z,9.40
2023-04-26T21:12:12.133Z,9.50
2023-04-26T21:15:13.999Z,9.40
2023-04-26T21:18:16.613Z,9.40
2023-04-26T21:21:19.076Z,9.50
2023-04-26T21:24:20.895Z,9.40
2023-04-26T21:27:22.901Z,9.30
2023-04-26T21:30:24.921Z,9.40
2023-04-26T21:33:26.738Z,9.30
2023-04-26T21:36:28.522Z,9.40
2023-04-26T21:39:30.257Z,9.40
2023-04-26T21:42:32.234Z,9.40
2023-04-26T21:45:34.085Z,9.40
2023-04-26T21:48:38.814Z,9.30
2023-04-26T21:51:40.734Z,9.40
2023-04-26T21:54:43.499Z,9.40
2023-04-26T21:57:45.288Z,9.50
2023-04-26T22:00:47.324Z,9.40
2023-04-26T22:03:49.318Z,9.50
2023-04-26T22:06:51.564Z,9.50
2023-04-26T22:09:53.347Z,9.40
2023-04-26T22:12:55.214Z,9.30
2023-04-26T22:15:57.079Z,9.20
2023-04-26T22:18:59.752Z,9.20
2023-04-26T22:22:01.639Z,9.30
2023-04-26T22:25:03.537Z,9.30
2023-04-26T22:28:05.926Z,9.40
2023-04-26T22:31:07.800Z,9.30
2023-04-26T22:34:09.585Z,9.40
2023-04-26T22:37:20.874Z,9.30
2023-04-26T22:40:23.668Z,9.10
2023-04-26T22:43:25.908Z,9.00
2023-04-26T22:46:27.798Z,9.00
2023-04-26T22:49:29.791Z,9.00
2023-04-26T22:52:32.209Z,8.90
2023-04-26T22:55:35.096Z,9.00
2023-04-26T22:58:37.088Z,8.80
2023-04-26T23:01:39.125Z,8.90
2023-04-26T23:04:44.209Z,8.90
2023-04-26T23:07:46.853Z,8.90
2023-04-26T23:10:48.730Z,8.80
2023-04-26T23:13:53.409Z,8.80
2023-04-26T23:16:55.619Z,8.90
2023-04-26T23:20:00.168Z,8.70
2023-04-26T23:23:01.913Z,8.80
2023-04-26T23:26:08.497Z,8.60
2023-04-26T23:29:10.994Z,8.60
2023-04-26T23:32:14.875Z,8.50
2023-04-26T23:35:19.132Z,8.60
2023-04-26T23:38:23.524Z,8.50
2023-04-26T23:41:25.303Z,8.40
2023-04-26T23:44:28.151Z,8.50
2023-04-26T23:47:30.996Z,8.40
2023-04-26T23:50:33.553Z,8.40
2023-04-26T23:53:35.315Z,8.30
2023-04-26T23:56:37.322Z,8.30
2023-04-26T23:59:39.324Z,8.20
